createdAt,value
2023-03-11T00:02:41.617Z,98154.72
2023-03-11T00:05:45.416Z,98170.34
2023-03-11T00:08:47.923Z,98166.44
2023-03-11T00:11:50.661Z,98161.84
2023-03-11T00:14:53.372Z,98157.19
2023-03-11T00:17:56.273Z,98156.75
2023-03-11T00:21:00.186Z,98138.16
2023-03-11T00:24:03.747Z,98151.59
2023-03-11T00:27:06.978Z,98151.69
2023-03-11T00:30:11.168Z,98154.16
2023-03-11T00:33:15.810Z,98152.25
2023-03-11T00:36:24.482Z,98154.28
2023-03-11T00:39:27.345Z,98153.53
2023-03-11T00:42:30.028Z,98147.50
2023-03-11T00:45:33.847Z,98139.94
2023-03-11T00:48:36.576Z,98139.81
2023-03-11T00:51:39.297Z,98146.31
2023-03-11T00:54:41.864Z,98149.69
2023-03-11T00:57:45.196Z,98148.97
2023-03-11T01:00:48.544Z,98152.53
2023-03-11T01:03:51.296Z,98146.75
2023-03-11T01:06:54.003Z,98155.44
2023-03-11T01:09:56.894Z,98143.19
2023-03-11T01:12:59.802Z,98149.47
2023-03-11T01:16:03.563Z,98135.06
2023-03-11T01:19:07.259Z,98142.03
2023-03-11T01:22:10.228Z,98152.44
2023-03-11T01:25:17.968Z,98142.19
2023-03-11T01:28:21.109Z,98143.56
2023-03-11T01:31:23.684Z,98131.66
2023-03-11T01:34:27.458Z,98128.94
2023-03-11T01:37:30.332Z,98148.28
2023-03-11T01:40:35.854Z,98137.69
2023-03-11T01:43:44.748Z,98137.69
2023-03-11T01:46:59.792Z,98127.47
2023-03-11T01:50:12.723Z,98125.00
2023-03-11T01:53:17.554Z,98130.22
2023-03-11T01:56:21.156Z,98136.50
2023-03-11T01:59:29.039Z,98146.09
2023-03-11T02:02:41.947Z,98144.69
2023-03-11T02:05:45.742Z,98128.53
2023-03-11T02:08:49.530Z,98132.16
2023-03-11T02:11:53.473Z,98143.44
2023-03-11T02:14:56.995Z,98156.63
2023-03-11T02:18:03.234Z,98158.38
2023-03-11T02:21:32.094Z,98154.84
2023-03-11T02:24:42.250Z,98153.25
2023-03-11T02:27:48.929Z,98142.03
2023-03-11T02:30:53.782Z,98136.19
2023-03-11T02:34:00.386Z,98138.66
2023-03-11T02:37:08.611Z,98147.06
2023-03-11T02:40:35.309Z,98134.47
2023-03-11T02:43:43.921Z,98134.47
2023-03-11T02:46:50.729Z,98145.06
2023-03-11T02:49:56.283Z,98145.00
2023-03-11T02:52:59.249Z,98119.13
2023-03-11T02:56:02.054Z,98144.06
2023-03-11T02:59:05.712Z,98139.84
2023-03-11T03:02:08.606Z,98157.31
2023-03-11T03:05:12.421Z,98159.31
2023-03-11T03:08:15.204Z,98167.53
2023-03-11T03:11:17.980Z,98173.41
2023-03-11T03:14:22.212Z,98164.00
2023-03-11T03:17:25.615Z,98186.00
2023-03-11T03:20:28.328Z,98180.69
2023-03-11T03:23:37.678Z,98192.97
2023-03-11T03:26:40.569Z,98209.19
2023-03-11T03:29:44.096Z,98188.94
2023-03-11T03:32:47.468Z,98179.41
2023-03-11T03:35:52.431Z,98185.06
2023-03-11T03:39:02.672Z,98174.84
2023-03-11T03:42:09.371Z,98198.38
2023-03-11T03:45:15.619Z,98184.16
2023-03-11T03:48:19.658Z,98184.84
2023-03-11T03:51:23.788Z,98197.78
2023-03-11T03:54:49.079Z,98198.22
2023-03-11T03:57:51.736Z,98179.75
2023-03-11T04:00:57.448Z,98211.44
2023-03-11T04:04:00.203Z,98200.25
2023-03-11T04:07:05.772Z,98231.38
2023-03-11T04:10:09.854Z,98209.28
2023-03-11T04:13:13.404Z,98234.72
2023-03-11T04:16:20.381Z,98253.25
2023-03-11T04:19:26.378Z,98270.41
2023-03-11T04:22:29.219Z,98261.88
2023-03-11T04:25:32.135Z,98282.66
2023-03-11T04:28:34.799Z,98277.06
2023-03-11T04:31:37.800Z,98284.91
2023-03-11T04:34:42.153Z,98261.00
2023-03-11T04:37:45.750Z,98285.59
2023-03-11T04:40:48.567Z,98295.56
2023-03-11T04:43:51.678Z,98313.56
2023-03-11T04:46:54.383Z,98309.16
2023-03-11T04:49:57.121Z,98301.06
2023-03-11T04:53:00.371Z,98294.66
2023-03-11T04:56:03.233Z,98304.41
2023-03-11T04:59:06.262Z,98305.06
2023-03-11T05:02:12.936Z,98323.09
2023-03-11T05:05:20.927Z,98322.94
2023-03-11T05:08:24.229Z,98322.28
2023-03-11T05:11:27.061Z,98314.00
2023-03-11T05:14:29.880Z,98321.94
2023-03-11T05:17:33.298Z,98330.16
2023-03-11T05:20:37.149Z,98319.25
2023-03-11T05:23:40.117Z,98331.09
2023-03-11T05:26:42.984Z,98344.31
2023-03-11T05:29:45.676Z,98321.06
2023-03-11T05:32:49.011Z,98328.63
2023-03-11T05:35:52.843Z,98340.84
2023-03-11T05:38:56.795Z,98334.03
2023-03-11T05:41:59.654Z,98349.56
2023-03-11T05:45:03.646Z,98367.38
2023-03-11T05:48:08.325Z,98383.22
2023-03-11T05:51:13.943Z,98371.91
2023-03-11T05:54:18.050Z,98379.00
2023-03-11T05:57:23.358Z,98388.53
2023-03-11T06:00:29.592Z,98379.81
2023-03-11T06:03:34.776Z,98365.59
2023-03-11T06:06:40.610Z,98379.47
2023-03-11T06:09:43.561Z,98366.88
2023-03-11T06:12:50.525Z,98382.06
2023-03-11T06:16:06.018Z,98376.81
2023-03-11T06:19:09.133Z,98383.06
2023-03-11T06:22:16.830Z,98398.91
2023-03-11T06:25:19.925Z,98387.97
2023-03-11T06:28:23.574Z,98415.59
2023-03-11T06:31:29.113Z,98421.94
2023-03-11T06:34:38.012Z,98425.53
2023-03-11T06:37:42.006Z,98431.53
2023-03-11T06:40:45.154Z,98439.47
2023-03-11T06:43:47.889Z,98444.22
2023-03-11T06:46:51.115Z,98452.72
2023-03-11T06:49:54.613Z,98465.75
2023-03-11T06:52:57.590Z,98472.38
2023-03-11T06:56:03.231Z,98476.09
2023-03-11T06:59:09.410Z,98465.44
2023-03-11T07:02:14.232Z,98495.16
2023-03-11T07:05:18.512Z,98485.22
2023-03-11T07:08:23.199Z,98467.19
2023-03-11T07:11:27.874Z,98447.97
2023-03-11T07:14:37.557Z,98494.69
2023-03-11T07:17:40.228Z,98476.28
2023-03-11T07:20:46.008Z,98510.69
2023-03-11T07:23:52.820Z,98481.25
2023-03-11T07:27:16.656Z,98505.44
2023-03-11T07:30:20.616Z,98489.88
2023-03-11T07:33:26.812Z,98475.94
2023-03-11T07:36:30.524Z,98486.34
2023-03-11T07:39:33.276Z,98491.63
2023-03-11T07:42:35.916Z,98494.38
2023-03-11T07:45:38.601Z,98482.41
2023-03-11T07:48:41.232Z,98475.50
2023-03-11T07:51:44.875Z,98474.97
2023-03-11T07:54:47.518Z,98484.69
2023-03-11T07:57:51.701Z,98500.81
2023-03-11T08:00:56.507Z,98506.81
2023-03-11T08:03:59.472Z,98480.13
2023-03-11T08:07:02.073Z,98525.53
2023-03-11T08:10:04.966Z,98518.97
2023-03-11T08:13:08.147Z,98529.66
2023-03-11T08:16:14.178Z,98523.81
2023-03-11T08:19:16.896Z,98564.66
2023-03-11T08:22:19.444Z,98558.31
2023-03-11T08:25:22.067Z,98566.97
2023-03-11T08:28:24.865Z,98586.47
2023-03-11T08:31:30.448Z,98597.72
2023-03-11T08:34:35.181Z,98596.09
2023-03-11T08:37:38.222Z,98615.66
2023-03-11T08:40:41.209Z,98612.06
2023-03-11T08:43:44.667Z,98582.09
2023-03-11T08:46:47.774Z,98615.22
2023-03-11T08:49:50.475Z,98629.66
2023-03-11T08:52:53.204Z,98613.75
2023-03-11T08:55:55.798Z,98578.22
2023-03-11T08:58:58.560Z,98585.28
2023-03-11T09:02:01.307Z,98573.50
2023-03-11T09:05:04.195Z,98578.75
2023-03-11T09:08:07.076Z,98548.13
2023-03-11T09:11:10.064Z,98554.63
2023-03-11T09:14:12.758Z,98531.22
2023-03-11T09:17:15.681Z,98556.69
2023-03-11T09:20:18.613Z,98579.75
2023-03-11T09:23:21.325Z,98612.91
2023-03-11T09:26:24.290Z,98574.34
2023-03-11T09:29:26.898Z,98601.28
2023-03-11T09:32:29.625Z,98595.63
2023-03-11T09:35:32.740Z,98596.72
2023-03-11T09:38:35.444Z,98611.03
2023-03-11T09:41:58.908Z,98607.47
2023-03-11T09:45:15.637Z,98613.19
2023-03-11T09:48:34.157Z,98618.94
2023-03-11T09:51:39.174Z,98602.75
2023-03-11T09:54:51.234Z,98600.13
2023-03-11T09:57:56.956Z,98605.63
2023-03-11T10:01:01.003Z,98593.53
2023-03-11T10:04:17.993Z,98612.81
2023-03-11T10:07:28.416Z,98614.84
2023-03-11T10:10:39.844Z,98614.59
2023-03-11T10:14:09.302Z,98598.53
2023-03-11T10:17:29.880Z,98628.59
2023-03-11T10:20:38.499Z,98619.78
2023-03-11T10:23:57.081Z,98635.59
2023-03-11T10:27:08.587Z,98640.88
2023-03-11T10:30:19.322Z,98649.84
2023-03-11T10:33:29.177Z,98671.75
2023-03-11T10:36:42.974Z,98656.22
2023-03-11T10:39:48.577Z,98677.47
2023-03-11T10:42:54.166Z,98703.25
2023-03-11T10:45:56.947Z,98727.06
2023-03-11T10:48:59.529Z,98694.44
2023-03-11T10:52:04.145Z,98706.19
2023-03-11T10:55:07.770Z,98710.22
2023-03-11T10:58:14.082Z,98735.25
2023-03-11T11:01:18.752Z,98711.34
2023-03-11T11:04:37.073Z,98699.50
2023-03-11T11:07:42.621Z,98704.97
2023-03-11T11:10:53.799Z,98691.25
2023-03-11T11:13:58.268Z,98697.00
2023-03-11T11:17:00.909Z,98691.56
2023-03-11T11:20:13.616Z,98697.44
2023-03-11T11:23:26.992Z,98719.97
2023-03-11T11:26:29.624Z,98716.75
2023-03-11T11:29:32.632Z,98728.69
2023-03-11T11:32:36.537Z,98717.13
2023-03-11T11:35:50.510Z,98755.72
2023-03-11T11:38:54.672Z,98718.00
2023-03-11T11:41:57.750Z,98726.91
2023-03-11T11:45:19.294Z,98738.16
2023-03-11T11:48:33.683Z,98738.09
2023-03-11T11:51:42.940Z,98736.97
2023-03-11T11:55:01.447Z,98735.00
2023-03-11T11:58:10.061Z,98725.50
2023-03-11T12:01:21.004Z,98726.28
2023-03-11T12:04:46.400Z,98759.31
2023-03-11T12:08:18.183Z,98715.34
2023-03-11T12:11:32.805Z,98696.53
2023-03-11T12:14:50.137Z,98701.88
2023-03-11T12:18:01.004Z,98729.84
2023-03-11T12:21:23.838Z,98734.81
2023-03-11T12:24:49.817Z,98683.66
2023-03-11T12:28:14.385Z,98745.09
2023-03-11T12:31:17.462Z,98744.34
2023-03-11T12:34:22.167Z,98766.13
2023-03-11T12:37:24.921Z,98774.38
2023-03-11T12:40:42.954Z,98751.88
2023-03-11T12:43:46.320Z,98777.03
2023-03-11T12:46:54.881Z,98754.88
2023-03-11T12:50:34.840Z,98763.00
2023-03-11T12:53:47.451Z,98771.94
2023-03-11T12:56:56.659Z,98764.28
2023-03-11T13:00:45.797Z,98784.78
2023-03-11T13:04:19.628Z,98788.06
2023-03-11T13:07:22.529Z,98786.47
2023-03-11T13:10:45.348Z,98796.28
2023-03-11T13:13:48.112Z,98777.31
2023-03-11T13:16:50.982Z,98794.47
2023-03-11T13:19:58.746Z,98807.09
2023-03-11T13:23:01.361Z,98812.94
2023-03-11T13:26:11.797Z,98825.44
2023-03-11T13:29:47.929Z,98837.09
2023-03-11T13:33:09.196Z,98851.28
2023-03-11T13:36:32.435Z,98849.88
2023-03-11T13:39:46.558Z,98851.06
2023-03-11T13:42:52.278Z,98860.38
2023-03-11T13:46:21.199Z,98885.38
2023-03-11T13:49:36.175Z,98901.31
2023-03-11T13:52:53.709Z,98903.06
2023-03-11T13:55:56.873Z,98896.66
2023-03-11T13:59:16.998Z,98888.06
2023-03-11T14:02:23.088Z,98886.31
2023-03-11T14:05:30.875Z,98917.53
2023-03-11T14:08:35.628Z,98911.59
2023-03-11T14:11:40.162Z,98916.31
2023-03-11T14:14:53.569Z,98912.84
2023-03-11T14:18:25.610Z,98919.03
2023-03-11T14:21:28.404Z,98889.47
2023-03-11T14:24:32.185Z,98923.38
2023-03-11T14:27:35.539Z,98911.38
2023-03-11T14:30:39.663Z,98933.16
2023-03-11T14:33:42.418Z,98968.09
2023-03-11T14:36:57.494Z,98965.63
2023-03-11T14:40:00.739Z,98976.47
2023-03-11T14:43:08.372Z,98979.94
2023-03-11T14:46:18.564Z,98977.31
2023-03-11T14:49:25.339Z,98977.41
2023-03-11T14:52:52.337Z,98967.72
2023-03-11T14:56:02.008Z,98963.13
2023-03-11T14:59:18.793Z,98980.16
2023-03-11T15:02:48.964Z,98990.00
2023-03-11T15:06:12.216Z,98971.72
2023-03-11T15:09:21.088Z,99009.13
2023-03-11T15:12:31.357Z,98988.47
2023-03-11T15:15:34.798Z,99006.59
2023-03-11T15:18:38.653Z,99005.41
2023-03-11T15:21:47.565Z,98998.63
2023-03-11T15:24:59.358Z,99017.94
2023-03-11T15:28:33.017Z,99029.88
2023-03-11T15:31:38.043Z,99043.66
2023-03-11T15:34:41.721Z,99043.66
2023-03-11T15:37:46.222Z,99053.19
2023-03-11T15:41:13.458Z,99071.66
2023-03-11T15:44:26.392Z,99076.41
2023-03-11T15:47:29.689Z,99060.63
2023-03-11T15:50:50.584Z,99075.47
2023-03-11T15:53:55.181Z,99085.22
2023-03-11T15:57:04.691Z,99069.66
2023-03-11T16:00:22.786Z,99099.78
2023-03-11T16:03:25.913Z,99103.69
2023-03-11T16:06:29.285Z,99115.91
2023-03-11T16:09:34.650Z,99108.44
2023-03-11T16:12:38.045Z,99112.31
2023-03-11T16:15:42.373Z,99102.28
2023-03-11T16:18:45.470Z,99073.69
2023-03-11T16:21:50.812Z,99131.06
2023-03-11T16:24:54.348Z,99126.03
2023-03-11T16:27:59.826Z,99140.97
2023-03-11T16:31:02.785Z,99135.66
2023-03-11T16:34:05.772Z,99140.06
2023-03-11T16:37:14.298Z,99168.25
2023-03-11T16:40:25.535Z,99162.09
2023-03-11T16:43:31.604Z,99174.69
2023-03-11T16:46:34.772Z,99184.75
2023-03-11T16:49:37.695Z,99176.84
2023-03-11T16:52:40.429Z,99211.56
2023-03-11T16:55:45.769Z,99208.94
2023-03-11T16:58:49.574Z,99201.03
2023-03-11T17:01:52.842Z,99217.53
2023-03-11T17:04:56.378Z,99228.19
2023-03-11T17:08:04.476Z,99252.44
2023-03-11T17:11:18.394Z,99240.72
2023-03-11T17:14:24.648Z,99247.22
2023-03-11T17:17:28.115Z,99254.16
2023-03-11T17:20:32.163Z,99243.56
2023-03-11T17:23:35.833Z,99252.09
2023-03-11T17:26:39.317Z,99265.50
2023-03-11T17:29:43.049Z,99273.19
2023-03-11T17:32:46.307Z,99284.88
2023-03-11T17:35:49.759Z,99290.03
2023-03-11T17:38:55.616Z,99303.88
2023-03-11T17:41:59.236Z,99313.19
2023-03-11T17:45:02.541Z,99323.13
2023-03-11T17:48:06.698Z,99300.56
2023-03-11T17:51:17.246Z,99316.91
2023-03-11T17:54:21.016Z,99325.38
2023-03-11T17:57:24.102Z,99333.16
2023-03-11T18:00:27.564Z,99328.84
2023-03-11T18:03:31.099Z,99336.47
2023-03-11T18:06:34.581Z,99352.47
2023-03-11T18:09:38.567Z,99338.75
2023-03-11T18:12:45.481Z,99355.34
2023-03-11T18:16:09.634Z,99347.59
2023-03-11T18:19:13.011Z,99354.16
2023-03-11T18:22:16.323Z,99364.06
2023-03-11T18:25:20.278Z,99373.25
2023-03-11T18:28:23.599Z,99378.28
2023-03-11T18:31:29.173Z,99374.25
2023-03-11T18:34:33.675Z,99387.03
2023-03-11T18:37:37.218Z,99385.56
2023-03-11T18:40:40.495Z,99398.81
2023-03-11T18:43:44.043Z,99398.59
2023-03-11T18:46:48.631Z,99402.56
2023-03-11T18:49:52.408Z,99416.06
2023-03-11T18:52:56.575Z,99422.75
2023-03-11T18:56:04.089Z,99423.44
2023-03-11T18:59:09.198Z,99431.53
2023-03-11T19:02:12.925Z,99437.03
2023-03-11T19:05:16.930Z,99440.16
2023-03-11T19:08:21.577Z,99422.97
2023-03-11T19:11:26.586Z,99444.69
2023-03-11T19:14:31.404Z,99449.81
2023-03-11T19:17:36.339Z,99449.00
2023-03-11T19:20:40.370Z,99462.47
2023-03-11T19:23:45.343Z,99458.03
2023-03-11T19:26:48.840Z,99456.63
2023-03-11T19:29:52.371Z,99461.28
2023-03-11T19:32:56.022Z,99461.84
2023-03-11T19:36:03.966Z,99474.75
2023-03-11T19:39:07.903Z,99466.00
2023-03-11T19:42:11.715Z,99476.81
2023-03-11T19:45:15.139Z,99479.78
2023-03-11T19:48:20.858Z,99481.78
2023-03-11T19:51:28.481Z,99493.91
2023-03-11T19:54:34.523Z,99483.25
2023-03-11T19:57:38.918Z,99490.28
2023-03-11T20:00:44.611Z,99481.03
2023-03-11T20:03:48.371Z,99481.69
2023-03-11T20:06:52.054Z,99470.78
2023-03-11T20:09:55.579Z,99468.75
2023-03-11T20:13:02.438Z,99460.13
2023-03-11T20:16:09.421Z,99460.13
2023-03-11T20:19:14.623Z,99457.72
2023-03-11T20:22:20.485Z,99460.47
2023-03-11T20:25:25.684Z,99458.72
2023-03-11T20:28:30.025Z,99461.88
2023-03-11T20:31:38.206Z,99457.28
2023-03-11T20:34:42.228Z,99452.06
2023-03-11T20:37:46.395Z,99457.72
2023-03-11T20:40:56.775Z,99458.03
2023-03-11T20:44:04.631Z,99446.38
2023-03-11T20:47:08.240Z,99466.50
2023-03-11T20:50:13.458Z,99469.03
2023-03-11T20:53:17.326Z,99477.00
2023-03-11T20:56:23.997Z,99493.03
2023-03-11T20:59:27.572Z,99495.44
2023-03-11T21:02:34.893Z,99489.38
2023-03-11T21:05:38.951Z,99504.66
2023-03-11T21:08:45.680Z,99504.03
2023-03-11T21:11:49.581Z,99503.59
2023-03-11T21:14:52.675Z,99509.16
2023-03-11T21:17:57.812Z,99509.03
2023-03-11T21:21:01.127Z,99503.91
2023-03-11T21:24:04.640Z,99515.03
2023-03-11T21:27:07.604Z,99526.66
2023-03-11T21:30:11.838Z,99523.72
2023-03-11T21:33:14.698Z,99540.28
2023-03-11T21:36:18.148Z,99554.22
2023-03-11T21:39:22.021Z,99550.53
2023-03-11T21:42:29.328Z,99542.59
2023-03-11T21:45:31.975Z,99552.66
2023-03-11T21:48:38.347Z,99542.78
2023-03-11T21:51:41.157Z,99559.06
2023-03-11T21:54:44.003Z,99548.88
2023-03-11T21:57:47.961Z,99561.44
2023-03-11T22:00:50.936Z,99560.31
2023-03-11T22:03:53.778Z,99559.16
2023-03-11T22:06:57.552Z,99555.78
2023-03-11T22:10:00.316Z,99557.28
2023-03-11T22:13:04.051Z,99558.19
2023-03-11T22:16:07.426Z,99559.34
2023-03-11T22:19:11.499Z,99570.03
2023-03-11T22:22:14.151Z,99574.88
2023-03-11T22:25:16.819Z,99573.72
2023-03-11T22:28:19.414Z,99583.47
2023-03-11T22:31:23.503Z,99589.84
2023-03-11T22:34:26.167Z,99588.91
2023-03-11T22:37:28.728Z,99592.75
2023-03-11T22:40:31.479Z,99613.00
2023-03-11T22:43:36.925Z,99632.91
2023-03-11T22:46:39.737Z,99645.00
2023-03-11T22:49:42.741Z,99641.19
2023-03-11T22:52:45.796Z,99646.44
2023-03-11T22:55:49.501Z,99645.81
2023-03-11T22:58:52.540Z,99655.63
2023-03-11T23:01:55.455Z,99676.03
2023-03-11T23:04:58.063Z,99673.63
2023-03-11T23:08:00.778Z,99666.88
2023-03-11T23:11:06.190Z,99659.97
2023-03-11T23:14:08.878Z,99665.59
2023-03-11T23:17:11.554Z,99664.94
2023-03-11T23:20:15.911Z,99668.50
2023-03-11T23:23:18.976Z,99660.16
2023-03-11T23:26:22.552Z,99658.03
2023-03-11T23:29:25.453Z,99675.88
2023-03-11T23:32:28.571Z,99675.34
2023-03-11T23:35:32.194Z,99687.84
2023-03-11T23:38:36.036Z,99676.81
2023-03-11T23:41:39.179Z,99685.03
2023-03-11T23:44:41.744Z,99689.91
2023-03-11T23:47:44.611Z,99691.38
2023-03-11T23:50:48.850Z,99693.34
2023-03-11T23:53:51.919Z,99718.66
2023-03-11T23:56:54.512Z,99718.66
2023-03-11T23:59:57.195Z,99720.72
